createdAt,value
2022-10-18T00:09:05.441Z,362.52444
2022-10-18T00:24:07.835Z,266.5621
2022-10-18T00:39:10.169Z,160.90657
2022-10-18T00:54:12.468Z,58.159
2022-10-18T01:09:14.796Z,7.75453
2022-10-18T01:24:17.096Z,0
2022-10-18T01:39:19.507Z,0
2022-10-18T01:54:21.819Z,0
2022-10-18T02:09:24.146Z,0
2022-10-18T02:24:26.475Z,0
2022-10-18T02:39:28.833Z,0
2022-10-18T02:54:31.178Z,0
2022-10-18T03:09:33.497Z,0
2022-10-18T03:24:35.852Z,0
2022-10-18T03:39:38.137Z,0
2022-10-18T03:54:40.448Z,0
2022-10-18T04:09:42.774Z,0
2022-10-18T04:24:45.054Z,0
2022-10-18T04:39:49.944Z,0
2022-10-18T04:54:55.435Z,0
2022-10-18T05:09:57.733Z,0
2022-10-18T05:25:00.045Z,0
2022-10-18T05:40:02.560Z,0
2022-10-18T05:55:04.911Z,0
2022-10-18T06:10:07.191Z,0
2022-10-18T06:25:09.456Z,0
2022-10-18T06:40:11.946Z,0
2022-10-18T06:55:14.254Z,0
2022-10-18T07:10:16.507Z,0
2022-10-18T07:25:19.120Z,0
2022-10-18T07:40:21.685Z,0
2022-10-18T07:55:24.216Z,0
2022-10-18T08:10:26.669Z,0
2022-10-18T08:25:29.038Z,0
2022-10-18T08:40:31.622Z,0
2022-10-18T08:55:33.944Z,0
2022-10-18T09:10:36.282Z,0
2022-10-18T09:25:38.553Z,0
2022-10-18T09:40:40.818Z,0
2022-10-18T09:55:43.206Z,0
2022-10-18T10:10:45.492Z,0
2022-10-18T10:25:47.814Z,0
2022-10-18T10:40:50.124Z,0
2022-10-18T10:55:52.454Z,0
2022-10-18T11:10:54.712Z,0
2022-10-18T11:25:57.022Z,0
2022-10-18T11:40:59.286Z,0
2022-10-18T11:56:01.710Z,0
2022-10-18T12:11:05.758Z,0
2022-10-18T12:26:08.901Z,0
2022-10-18T12:41:11.210Z,0
2022-10-18T12:56:13.562Z,0
2022-10-18T13:11:15.874Z,0
2022-10-18T13:26:18.172Z,0
2022-10-18T13:41:20.580Z,0
2022-10-18T13:56:22.940Z,4.84658
2022-10-18T14:11:25.292Z,29.0795
2022-10-18T14:26:27.691Z,96.93167
2022-10-18T14:41:30.027Z,240.39055
2022-10-18T14:56:32.296Z,398.38916
2022-10-18T15:11:34.644Z,419.71414
2022-10-18T15:26:36.875Z,2106.3252
2022-10-18T15:41:39.299Z,7471.49316
2022-10-18T15:56:41.611Z,2095.66284
2022-10-18T16:11:43.878Z,1753.4939
2022-10-18T16:26:46.226Z,16374.66699
2022-10-18T16:41:48.475Z,5599.74268
2022-10-18T16:56:50.751Z,3564.17749
2022-10-18T17:11:53.110Z,14981.75879
2022-10-18T17:26:55.434Z,4908.62012
2022-10-18T17:41:57.752Z,3776.45801
2022-10-18T17:57:00.031Z,4660.47461
2022-10-18T18:12:02.326Z,4864.03125
2022-10-18T18:27:04.538Z,3997.46216
2022-10-18T18:42:06.871Z,4573.23633
2022-10-18T18:57:09.213Z,5041.4165
2022-10-18T19:12:11.478Z,5615.25195
2022-10-18T19:27:13.788Z,5591.01904
2022-10-18T19:42:19.173Z,5275.99072
2022-10-18T19:57:25.114Z,5211.04688
2022-10-18T20:12:27.466Z,4953.2085
2022-10-18T20:27:30.115Z,5209.10791
2022-10-18T20:42:32.621Z,4827.19727
2022-10-18T20:57:36.545Z,4813.62695
2022-10-18T21:12:39.148Z,4655.62842
2022-10-18T21:27:41.442Z,4587.77588
2022-10-18T21:42:43.799Z,4218.46631
2022-10-18T21:57:46.126Z,3602.9502
2022-10-18T22:12:48.587Z,2993.25
2022-10-18T22:27:51.013Z,2661.74365
2022-10-18T22:42:53.339Z,2355.4397
2022-10-18T22:57:55.703Z,2012.30151
2022-10-18T23:12:58.017Z,908.24976
2022-10-18T23:28:00.342Z,613.57751
2022-10-18T23:43:02.745Z,529.24695
2022-10-18T23:58:05.266Z,439.10046
